Terminal Aerodrome Forecast
Issued by NWS Cleveland, OH

Home | Current Version | Previous Version | Text Only | Print | Product List | Glossary On
Versions: 1 2 3 4 5 6 7 8 9 10 11 12 13 14 15 16 17 18 19 20 21 22 23 24 25 26 27 28 29 30 31 32 33 34 35
575
FTUS41 KCLE 091722
TAFCLE
TAF
KCLE 091722Z 0918/1024 24012KT 6SM -SN OVC012
      TEMPO 0918/0921 3SM -SN OVC008
     FM092100 27012KT 6SM HZ OVC012
     FM100000 26014KT 5SM -SN OVC012
     FM100600 26014KT 6SM HZ OVC012
     FM101400 27012KT 3SM -SN OVC012=

USA.gov is the U.S. government's official web portal to all federal, state and local government web resources and services.